sensor_id;sensor_type;location;lat;lon;timestamp;P1;durP1;ratioP1;P2;durP2;ratioP2
44588;SDS011;30298;52.562;13.414;2022-09-24T00:00:43;8.57;;;5.73;;
44588;SDS011;30298;52.562;13.414;2022-09-24T00:03:09;7.75;;;5.63;;
44588;SDS011;30298;52.562;13.414;2022-09-24T00:05:37;6.17;;;4.93;;
44588;SDS011;30298;52.562;13.414;2022-09-24T00:08:04;8.85;;;6.18;;
44588;SDS011;30298;52.562;13.414;2022-09-24T00:10:29;9.73;;;6.00;;
44588;SDS011;30298;52.562;13.414;2022-09-24T00:12:54;6.67;;;4.93;;
44588;SDS011;30298;52.562;13.414;2022-09-24T00:15:20;6.80;;;5.30;;
44588;SDS011;30298;52.562;13.414;2022-09-24T00:17:45;7.90;;;5.70;;
44588;SDS011;30298;52.562;13.414;2022-09-24T00:20:11;11.90;;;7.28;;
44588;SDS011;30298;52.562;13.414;2022-09-24T00:22:36;7.20;;;5.87;;
44588;SDS011;30298;52.562;13.414;2022-09-24T00:25:01;8.17;;;6.07;;
44588;SDS011;30298;52.562;13.414;2022-09-24T00:27:45;7.13;;;5.28;;
44588;SDS011;30298;52.562;13.414;2022-09-24T00:30:11;8.33;;;5.50;;
44588;SDS011;30298;52.562;13.414;2022-09-24T00:32:36;7.63;;;6.03;;
44588;SDS011;30298;52.562;13.414;2022-09-24T00:35:01;8.13;;;6.37;;
44588;SDS011;30298;52.562;13.414;2022-09-24T00:37:26;7.97;;;6.03;;
44588;SDS011;30298;52.562;13.414;2022-09-24T00:39:52;8.27;;;5.60;;
44588;SDS011;30298;52.562;13.414;2022-09-24T00:42:18;8.27;;;6.43;;
44588;SDS011;30298;52.562;13.414;2022-09-24T00:50:07;11.65;;;6.20;;
44588;SDS011;30298;52.562;13.414;2022-09-24T00:52:34;8.55;;;6.32;;
44588;SDS011;30298;52.562;13.414;2022-09-24T00:55:02;7.68;;;5.80;;
44588;SDS011;30298;52.562;13.414;2022-09-24T00:57:27;9.63;;;6.20;;
44588;SDS011;30298;52.562;13.414;2022-09-24T00:59:53;9.70;;;6.90;;
44588;SDS011;30298;52.562;13.414;2022-09-24T01:02:19;7.40;;;5.70;;
44588;SDS011;30298;52.562;13.414;2022-09-24T01:04:44;8.33;;;5.97;;
44588;SDS011;30298;52.562;13.414;2022-09-24T01:07:10;9.13;;;6.03;;
44588;SDS011;30298;52.562;13.414;2022-09-24T01:09:36;11.30;;;6.60;;
44588;SDS011;30298;52.562;13.414;2022-09-24T01:14:33;8.03;;;6.00;;
44588;SDS011;30298;52.562;13.414;2022-09-24T01:34:39;7.00;;;6.30;;
44588;SDS011;30298;52.562;13.414;2022-09-24T01:37:06;11.38;;;6.22;;
44588;SDS011;30298;52.562;13.414;2022-09-24T01:39:32;10.38;;;6.47;;
44588;SDS011;30298;52.562;13.414;2022-09-24T01:41:58;8.40;;;6.13;;
44588;SDS011;30298;52.562;13.414;2022-09-24T01:44:24;7.90;;;6.05;;
44588;SDS011;30298;52.562;13.414;2022-09-24T01:46:49;9.57;;;6.38;;
44588;SDS011;30298;52.562;13.414;2022-09-24T01:49:15;10.27;;;6.27;;
44588;SDS011;30298;52.562;13.414;2022-09-24T01:51:50;10.60;;;6.53;;
44588;SDS011;30298;52.562;13.414;2022-09-24T01:54:19;8.35;;;6.32;;
44588;SDS011;30298;52.562;13.414;2022-09-24T02:04:15;8.63;;;6.77;;
44588;SDS011;30298;52.562;13.414;2022-09-24T02:06:43;8.40;;;6.05;;
44588;SDS011;30298;52.562;13.414;2022-09-24T02:11:53;8.40;;;6.60;;
44588;SDS011;30298;52.562;13.414;2022-09-24T02:14:19;8.20;;;6.30;;
44588;SDS011;30298;52.562;13.414;2022-09-24T02:16:48;8.40;;;6.90;;
44588;SDS011;30298;52.562;13.414;2022-09-24T02:19:16;11.85;;;6.40;;
44588;SDS011;30298;52.562;13.414;2022-09-24T02:21:42;9.38;;;6.53;;
44588;SDS011;30298;52.562;13.414;2022-09-24T02:24:12;8.77;;;6.70;;
44588;SDS011;30298;52.562;13.414;2022-09-24T02:26:38;10.00;;;6.43;;
44588;SDS011;30298;52.562;13.414;2022-09-24T02:29:03;8.97;;;6.20;;
44588;SDS011;30298;52.562;13.414;2022-09-24T02:31:30;11.15;;;6.53;;
44588;SDS011;30298;52.562;13.414;2022-09-24T02:33:56;8.93;;;6.15;;
44588;SDS011;30298;52.562;13.414;2022-09-24T02:36:41;10.15;;;7.18;;
44588;SDS011;30298;52.562;13.414;2022-09-24T02:39:07;10.40;;;6.55;;
44588;SDS011;30298;52.562;13.414;2022-09-24T02:41:32;9.67;;;7.00;;
44588;SDS011;30298;52.562;13.414;2022-09-24T02:43:57;8.13;;;6.83;;
44588;SDS011;30298;52.562;13.414;2022-09-24T02:46:23;9.80;;;6.40;;
44588;SDS011;30298;52.562;13.414;2022-09-24T02:48:48;7.90;;;6.73;;
44588;SDS011;30298;52.562;13.414;2022-09-24T02:51:13;7.00;;;6.07;;
44588;SDS011;30298;52.562;13.414;2022-09-24T02:53:39;7.37;;;5.80;;
44588;SDS011;30298;52.562;13.414;2022-09-24T02:56:05;8.57;;;6.77;;
44588;SDS011;30298;52.562;13.414;2022-09-24T02:58:31;8.40;;;6.30;;
44588;SDS011;30298;52.562;13.414;2022-09-24T03:00:56;9.70;;;6.63;;
44588;SDS011;30298;52.562;13.414;2022-09-24T03:03:22;8.83;;;6.10;;
44588;SDS011;30298;52.562;13.414;2022-09-24T03:05:51;8.73;;;6.60;;
44588;SDS011;30298;52.562;13.414;2022-09-24T03:08:20;8.15;;;6.68;;
44588;SDS011;30298;52.562;13.414;2022-09-24T03:10:45;13.18;;;8.63;;
44588;SDS011;30298;52.562;13.414;2022-09-24T03:13:11;10.55;;;7.80;;
44588;SDS011;30298;52.562;13.414;2022-09-24T03:15:36;9.63;;;7.37;;
44588;SDS011;30298;52.562;13.414;2022-09-24T03:18:01;11.43;;;7.00;;
44588;SDS011;30298;52.562;13.414;2022-09-24T03:20:27;11.85;;;8.10;;
44588;SDS011;30298;52.562;13.414;2022-09-24T03:22:52;8.13;;;6.80;;
44588;SDS011;30298;52.562;13.414;2022-09-24T03:25:19;7.67;;;6.70;;
44588;SDS011;30298;52.562;13.414;2022-09-24T03:27:47;7.13;;;6.00;;
44588;SDS011;30298;52.562;13.414;2022-09-24T03:30:15;9.15;;;6.57;;
44588;SDS011;30298;52.562;13.414;2022-09-24T03:32:59;7.63;;;6.53;;
44588;SDS011;30298;52.562;13.414;2022-09-24T03:35:24;8.57;;;6.80;;
44588;SDS011;30298;52.562;13.414;2022-09-24T03:37:50;10.23;;;7.63;;
44588;SDS011;30298;52.562;13.414;2022-09-24T03:40:15;9.35;;;7.40;;
44588;SDS011;30298;52.562;13.414;2022-09-24T03:42:40;8.70;;;7.10;;
44588;SDS011;30298;52.562;13.414;2022-09-24T03:45:06;9.53;;;6.83;;
44588;SDS011;30298;52.562;13.414;2022-09-24T03:47:31;8.75;;;7.00;;
44588;SDS011;30298;52.562;13.414;2022-09-24T03:49:57;10.20;;;7.28;;
44588;SDS011;30298;52.562;13.414;2022-09-24T03:52:22;9.23;;;6.57;;
44588;SDS011;30298;52.562;13.414;2022-09-24T03:54:48;8.93;;;7.47;;
44588;SDS011;30298;52.562;13.414;2022-09-24T03:57:13;10.52;;;7.03;;
44588;SDS011;30298;52.562;13.414;2022-09-24T03:59:39;9.03;;;6.73;;
44588;SDS011;30298;52.562;13.414;2022-09-24T04:02:04;11.07;;;7.30;;
44588;SDS011;30298;52.562;13.414;2022-09-24T04:04:30;10.37;;;7.53;;
44588;SDS011;30298;52.562;13.414;2022-09-24T04:06:55;9.17;;;7.10;;
44588;SDS011;30298;52.562;13.414;2022-09-24T04:09:20;13.93;;;7.40;;
44588;SDS011;30298;52.562;13.414;2022-09-24T04:11:46;10.33;;;7.80;;
44588;SDS011;30298;52.562;13.414;2022-09-24T04:14:11;8.10;;;6.47;;
44588;SDS011;30298;52.562;13.414;2022-09-24T04:16:36;10.87;;;7.67;;
44588;SDS011;30298;52.562;13.414;2022-09-24T04:19:01;11.23;;;7.70;;
44588;SDS011;30298;52.562;13.414;2022-09-24T04:21:27;10.63;;;7.40;;
44588;SDS011;30298;52.562;13.414;2022-09-24T04:23:52;11.30;;;7.37;;
44588;SDS011;30298;52.562;13.414;2022-09-24T04:26:17;9.00;;;6.93;;
44588;SDS011;30298;52.562;13.414;2022-09-24T04:28:43;8.52;;;7.03;;
44588;SDS011;30298;52.562;13.414;2022-09-24T04:31:08;8.73;;;6.97;;
44588;SDS011;30298;52.562;13.414;2022-09-24T04:33:33;8.73;;;6.77;;
44588;SDS011;30298;52.562;13.414;2022-09-24T04:35:59;13.80;;;9.53;;
44588;SDS011;30298;52.562;13.414;2022-09-24T04:38:24;9.60;;;7.23;;
44588;SDS011;30298;52.562;13.414;2022-09-24T04:40:49;8.57;;;7.03;;
44588;SDS011;30298;52.562;13.414;2022-09-24T04:43:14;10.57;;;7.43;;
44588;SDS011;30298;52.562;13.414;2022-09-24T04:45:39;8.23;;;6.40;;
44588;SDS011;30298;52.562;13.414;2022-09-24T04:48:07;9.63;;;7.80;;
44588;SDS011;30298;52.562;13.414;2022-09-24T04:50:32;9.93;;;7.33;;
44588;SDS011;30298;52.562;13.414;2022-09-24T04:52:58;9.83;;;7.73;;
44588;SDS011;30298;52.562;13.414;2022-09-24T04:55:23;10.98;;;7.22;;
44588;SDS011;30298;52.562;13.414;2022-09-24T04:57:49;10.70;;;7.60;;
44588;SDS011;30298;52.562;13.414;2022-09-24T05:00:15;8.45;;;6.85;;
44588;SDS011;30298;52.562;13.414;2022-09-24T05:02:41;10.80;;;7.03;;
44588;SDS011;30298;52.562;13.414;2022-09-24T05:05:07;9.68;;;7.78;;
44588;SDS011;30298;52.562;13.414;2022-09-24T05:07:32;11.35;;;7.43;;
44588;SDS011;30298;52.562;13.414;2022-09-24T05:09:57;9.23;;;6.87;;
44588;SDS011;30298;52.562;13.414;2022-09-24T05:12:23;11.77;;;8.05;;
44588;SDS011;30298;52.562;13.414;2022-09-24T05:14:48;10.17;;;7.33;;
44588;SDS011;30298;52.562;13.414;2022-09-24T05:17:14;12.47;;;7.67;;
44588;SDS011;30298;52.562;13.414;2022-09-24T05:19:39;12.27;;;7.63;;
44588;SDS011;30298;52.562;13.414;2022-09-24T05:22:04;8.93;;;7.03;;
44588;SDS011;30298;52.562;13.414;2022-09-24T05:24:29;9.23;;;7.23;;
44588;SDS011;30298;52.562;13.414;2022-09-24T05:26:55;10.17;;;7.43;;
44588;SDS011;30298;52.562;13.414;2022-09-24T05:29:36;10.02;;;7.70;;
44588;SDS011;30298;52.562;13.414;2022-09-24T05:32:02;11.65;;;8.13;;
44588;SDS011;30298;52.562;13.414;2022-09-24T05:34:27;11.43;;;7.90;;
44588;SDS011;30298;52.562;13.414;2022-09-24T05:36:54;10.68;;;7.82;;
44588;SDS011;30298;52.562;13.414;2022-09-24T05:39:19;10.97;;;7.90;;
44588;SDS011;30298;52.562;13.414;2022-09-24T05:41:44;11.10;;;7.57;;
44588;SDS011;30298;52.562;13.414;2022-09-24T05:44:09;10.90;;;7.70;;
44588;SDS011;30298;52.562;13.414;2022-09-24T05:46:35;11.77;;;8.20;;
44588;SDS011;30298;52.562;13.414;2022-09-24T05:49:00;10.97;;;7.87;;
44588;SDS011;30298;52.562;13.414;2022-09-24T05:51:25;14.87;;;8.37;;
44588;SDS011;30298;52.562;13.414;2022-09-24T05:53:50;10.43;;;8.00;;
44588;SDS011;30298;52.562;13.414;2022-09-24T05:56:16;9.60;;;7.83;;
44588;SDS011;30298;52.562;13.414;2022-09-24T05:58:41;11.33;;;7.93;;
44588;SDS011;30298;52.562;13.414;2022-09-24T06:01:06;9.87;;;8.07;;
44588;SDS011;30298;52.562;13.414;2022-09-24T06:03:31;10.00;;;7.93;;
44588;SDS011;30298;52.562;13.414;2022-09-24T06:05:57;9.93;;;7.37;;
44588;SDS011;30298;52.562;13.414;2022-09-24T06:08:26;9.75;;;7.65;;
44588;SDS011;30298;52.562;13.414;2022-09-24T06:10:51;12.52;;;8.00;;
44588;SDS011;30298;52.562;13.414;2022-09-24T06:13:17;11.53;;;7.83;;
44588;SDS011;30298;52.562;13.414;2022-09-24T06:15:43;13.93;;;7.68;;
44588;SDS011;30298;52.562;13.414;2022-09-24T06:18:09;10.80;;;7.18;;
44588;SDS011;30298;52.562;13.414;2022-09-24T06:20:34;13.38;;;7.47;;
44588;SDS011;30298;52.562;13.414;2022-09-24T06:23:00;8.47;;;7.03;;
44588;SDS011;30298;52.562;13.414;2022-09-24T06:25:26;11.38;;;7.80;;
44588;SDS011;30298;52.562;13.414;2022-09-24T06:27:55;10.85;;;7.55;;
44588;SDS011;30298;52.562;13.414;2022-09-24T06:30:27;10.68;;;7.00;;
44588;SDS011;30298;52.562;13.414;2022-09-24T06:35:19;9.73;;;7.95;;
44588;SDS011;30298;52.562;13.414;2022-09-24T06:37:44;8.43;;;6.97;;
44588;SDS011;30298;52.562;13.414;2022-09-24T06:40:09;10.37;;;7.87;;
44588;SDS011;30298;52.562;13.414;2022-09-24T06:42:35;9.93;;;7.50;;
44588;SDS011;30298;52.562;13.414;2022-09-24T06:45:01;8.65;;;7.13;;
44588;SDS011;30298;52.562;13.414;2022-09-24T06:47:26;9.63;;;7.80;;
44588;SDS011;30298;52.562;13.414;2022-09-24T06:49:51;11.63;;;7.93;;
44588;SDS011;30298;52.562;13.414;2022-09-24T06:52:16;9.93;;;7.20;;
44588;SDS011;30298;52.562;13.414;2022-09-24T06:54:41;8.77;;;7.13;;
44588;SDS011;30298;52.562;13.414;2022-09-24T06:57:07;12.93;;;7.40;;
44588;SDS011;30298;52.562;13.414;2022-09-24T06:59:32;9.40;;;7.03;;
44588;SDS011;30298;52.562;13.414;2022-09-24T07:01:57;9.00;;;7.00;;
44588;SDS011;30298;52.562;13.414;2022-09-24T07:04:23;10.40;;;7.57;;
44588;SDS011;30298;52.562;13.414;2022-09-24T07:06:48;10.23;;;7.67;;
44588;SDS011;30298;52.562;13.414;2022-09-24T07:09:32;11.98;;;7.57;;
44588;SDS011;30298;52.562;13.414;2022-09-24T07:11:57;10.10;;;6.80;;
44588;SDS011;30298;52.562;13.414;2022-09-24T07:14:25;9.93;;;6.75;;
44588;SDS011;30298;52.562;13.414;2022-09-24T07:16:50;8.63;;;6.97;;
44588;SDS011;30298;52.562;13.414;2022-09-24T07:19:16;9.30;;;7.03;;
44588;SDS011;30298;52.562;13.414;2022-09-24T07:21:41;10.00;;;7.50;;
44588;SDS011;30298;52.562;13.414;2022-09-24T07:24:06;9.80;;;8.03;;
44588;SDS011;30298;52.562;13.414;2022-09-24T07:26:32;10.87;;;7.20;;
44588;SDS011;30298;52.562;13.414;2022-09-24T07:28:57;7.65;;;6.90;;
44588;SDS011;30298;52.562;13.414;2022-09-24T07:31:23;33.20;;;9.17;;
44588;SDS011;30298;52.562;13.414;2022-09-24T07:33:48;10.88;;;7.72;;
44588;SDS011;30298;52.562;13.414;2022-09-24T07:36:14;11.73;;;7.37;;
44588;SDS011;30298;52.562;13.414;2022-09-24T07:38:39;11.67;;;7.73;;
44588;SDS011;30298;52.562;13.414;2022-09-24T07:41:04;10.77;;;7.43;;
44588;SDS011;30298;52.562;13.414;2022-09-24T07:43:32;10.75;;;7.43;;
44588;SDS011;30298;52.562;13.414;2022-09-24T07:45:57;9.32;;;7.43;;
44588;SDS011;30298;52.562;13.414;2022-09-24T07:48:23;10.47;;;7.73;;
44588;SDS011;30298;52.562;13.414;2022-09-24T07:50:49;10.00;;;7.53;;
44588;SDS011;30298;52.562;13.414;2022-09-24T07:53:15;10.23;;;6.93;;
44588;SDS011;30298;52.562;13.414;2022-09-24T07:55:40;11.85;;;7.22;;
44588;SDS011;30298;52.562;13.414;2022-09-24T07:58:14;10.13;;;7.90;;
44588;SDS011;30298;52.562;13.414;2022-09-24T08:00:39;12.77;;;7.47;;
44588;SDS011;30298;52.562;13.414;2022-09-24T08:03:04;10.83;;;7.70;;
44588;SDS011;30298;52.562;13.414;2022-09-24T08:05:30;12.23;;;7.27;;
44588;SDS011;30298;52.562;13.414;2022-09-24T08:07:56;12.90;;;8.02;;
44588;SDS011;30298;52.562;13.414;2022-09-24T08:10:22;11.03;;;7.57;;
44588;SDS011;30298;52.562;13.414;2022-09-24T08:12:47;17.55;;;7.72;;
44588;SDS011;30298;52.562;13.414;2022-09-24T08:15:13;11.90;;;8.57;;
44588;SDS011;30298;52.562;13.414;2022-09-24T08:17:38;11.13;;;8.30;;
44588;SDS011;30298;52.562;13.414;2022-09-24T08:20:04;10.88;;;7.55;;
44588;SDS011;30298;52.562;13.414;2022-09-24T08:22:29;10.65;;;8.02;;
44588;SDS011;30298;52.562;13.414;2022-09-24T08:24:55;9.95;;;7.40;;
44588;SDS011;30298;52.562;13.414;2022-09-24T08:27:21;8.50;;;7.18;;
44588;SDS011;30298;52.562;13.414;2022-09-24T08:29:49;9.90;;;7.25;;
44588;SDS011;30298;52.562;13.414;2022-09-24T08:32:14;9.52;;;7.45;;
44588;SDS011;30298;52.562;13.414;2022-09-24T08:34:39;9.93;;;7.47;;
44588;SDS011;30298;52.562;13.414;2022-09-24T08:37:05;10.53;;;8.00;;
44588;SDS011;30298;52.562;13.414;2022-09-24T08:39:31;9.57;;;7.75;;
44588;SDS011;30298;52.562;13.414;2022-09-24T08:47:13;13.10;;;7.72;;
44588;SDS011;30298;52.562;13.414;2022-09-24T08:49:50;10.13;;;7.68;;
44588;SDS011;30298;52.562;13.414;2022-09-24T08:52:22;9.38;;;6.90;;
44588;SDS011;30298;52.562;13.414;2022-09-24T08:54:50;12.07;;;7.25;;
44588;SDS011;30298;52.562;13.414;2022-09-24T08:57:39;11.15;;;7.78;;
44588;SDS011;30298;52.562;13.414;2022-09-24T09:00:12;10.30;;;8.00;;
44588;SDS011;30298;52.562;13.414;2022-09-24T09:02:56;10.18;;;7.75;;
44588;SDS011;30298;52.562;13.414;2022-09-24T09:08:01;9.23;;;7.22;;
44588;SDS011;30298;52.562;13.414;2022-09-24T09:10:34;10.48;;;8.30;;
44588;SDS011;30298;52.562;13.414;2022-09-24T09:13:10;9.40;;;7.50;;
44588;SDS011;30298;52.562;13.414;2022-09-24T09:15:38;15.88;;;7.03;;
44588;SDS011;30298;52.562;13.414;2022-09-24T09:18:16;10.23;;;7.60;;
44588;SDS011;30298;52.562;13.414;2022-09-24T09:20:43;12.32;;;8.43;;
44588;SDS011;30298;52.562;13.414;2022-09-24T09:25:40;10.32;;;7.65;;
44588;SDS011;30298;52.562;13.414;2022-09-24T09:28:13;11.20;;;8.07;;
44588;SDS011;30298;52.562;13.414;2022-09-24T09:33:26;11.82;;;7.18;;
44588;SDS011;30298;52.562;13.414;2022-09-24T09:36:04;9.85;;;7.68;;
44588;SDS011;30298;52.562;13.414;2022-09-24T09:41:10;9.93;;;8.03;;
44588;SDS011;30298;52.562;13.414;2022-09-24T09:43:39;11.30;;;7.60;;
44588;SDS011;30298;52.562;13.414;2022-09-24T09:46:09;13.32;;;7.80;;
44588;SDS011;30298;52.562;13.414;2022-09-24T09:48:40;11.07;;;7.32;;
44588;SDS011;30298;52.562;13.414;2022-09-24T09:51:08;9.98;;;7.00;;
44588;SDS011;30298;52.562;13.414;2022-09-24T09:53:36;10.27;;;6.30;;
44588;SDS011;30298;52.562;13.414;2022-09-24T09:56:05;10.52;;;6.53;;
44588;SDS011;30298;52.562;13.414;2022-09-24T09:58:32;10.43;;;6.45;;
44588;SDS011;30298;52.562;13.414;2022-09-24T10:03:30;9.27;;;6.72;;
44588;SDS011;30298;52.562;13.414;2022-09-24T10:05:57;10.57;;;7.72;;
44588;SDS011;30298;52.562;13.414;2022-09-24T10:08:23;9.48;;;6.63;;
44588;SDS011;30298;52.562;13.414;2022-09-24T10:10:52;12.40;;;6.50;;
44588;SDS011;30298;52.562;13.414;2022-09-24T10:13:19;9.35;;;6.40;;
44588;SDS011;30298;52.562;13.414;2022-09-24T10:16:03;8.73;;;6.90;;
44588;SDS011;30298;52.562;13.414;2022-09-24T10:20:54;10.67;;;7.23;;
44588;SDS011;30298;52.562;13.414;2022-09-24T10:23:22;9.93;;;6.30;;
44588;SDS011;30298;52.562;13.414;2022-09-24T10:25:49;9.10;;;6.18;;
44588;SDS011;30298;52.562;13.414;2022-09-24T10:28:16;9.07;;;6.72;;
44588;SDS011;30298;52.562;13.414;2022-09-24T10:31:02;9.10;;;6.82;;
44588;SDS011;30298;52.562;13.414;2022-09-24T10:33:39;8.52;;;6.70;;
44588;SDS011;30298;52.562;13.414;2022-09-24T10:36:21;8.00;;;6.32;;
44588;SDS011;30298;52.562;13.414;2022-09-24T10:38:47;10.27;;;6.45;;
44588;SDS011;30298;52.562;13.414;2022-09-24T10:41:24;10.32;;;6.78;;
44588;SDS011;30298;52.562;13.414;2022-09-24T10:43:52;9.35;;;6.43;;
44588;SDS011;30298;52.562;13.414;2022-09-24T11:11:41;11.27;;;5.90;;
44588;SDS011;30298;52.562;13.414;2022-09-24T11:14:18;8.85;;;6.88;;
44588;SDS011;30298;52.562;13.414;2022-09-24T11:16:52;8.27;;;6.07;;
44588;SDS011;30298;52.562;13.414;2022-09-24T11:30:18;6.57;;;5.45;;
44588;SDS011;30298;52.562;13.414;2022-09-24T11:33:18;7.85;;;5.32;;
44588;SDS011;30298;52.562;13.414;2022-09-24T11:38:32;9.98;;;5.95;;
44588;SDS011;30298;52.562;13.414;2022-09-24T11:41:15;8.88;;;5.43;;
44588;SDS011;30298;52.562;13.414;2022-09-24T11:46:41;6.85;;;5.70;;
44588;SDS011;30298;52.562;13.414;2022-09-24T11:54:28;9.32;;;5.32;;
44588;SDS011;30298;52.562;13.414;2022-09-24T11:56:56;6.80;;;5.18;;
44588;SDS011;30298;52.562;13.414;2022-09-24T12:01:58;9.63;;;5.30;;
44588;SDS011;30298;52.562;13.414;2022-09-24T12:04:29;7.95;;;5.57;;
44588;SDS011;30298;52.562;13.414;2022-09-24T12:07:13;5.63;;;4.65;;
44588;SDS011;30298;52.562;13.414;2022-09-24T12:09:41;6.45;;;4.93;;
44588;SDS011;30298;52.562;13.414;2022-09-24T12:12:12;5.55;;;4.65;;
44588;SDS011;30298;52.562;13.414;2022-09-24T12:14:44;5.93;;;4.60;;
44588;SDS011;30298;52.562;13.414;2022-09-24T12:17:16;5.88;;;4.80;;
44588;SDS011;30298;52.562;13.414;2022-09-24T12:19:53;6.97;;;5.05;;
44588;SDS011;30298;52.562;13.414;2022-09-24T12:22:19;7.93;;;4.97;;
44588;SDS011;30298;52.562;13.414;2022-09-24T12:27:12;8.70;;;4.93;;
44588;SDS011;30298;52.562;13.414;2022-09-24T12:29:40;7.97;;;5.22;;
44588;SDS011;30298;52.562;13.414;2022-09-24T12:32:36;6.10;;;4.85;;
44588;SDS011;30298;52.562;13.414;2022-09-24T12:35:24;6.32;;;5.05;;
44588;SDS011;30298;52.562;13.414;2022-09-24T12:37:51;7.72;;;5.25;;
44588;SDS011;30298;52.562;13.414;2022-09-24T12:41:20;6.45;;;5.03;;
44588;SDS011;30298;52.562;13.414;2022-09-24T12:43:26;8.15;;;5.63;;
44588;SDS011;30298;52.562;13.414;2022-09-24T12:45:55;7.10;;;5.18;;
44588;SDS011;30298;52.562;13.414;2022-09-24T12:48:20;7.55;;;5.28;;
44588;SDS011;30298;52.562;13.414;2022-09-24T12:50:53;6.57;;;5.72;;
44588;SDS011;30298;52.562;13.414;2022-09-24T12:53:20;6.38;;;5.72;;
44588;SDS011;30298;52.562;13.414;2022-09-24T12:55:48;10.82;;;6.07;;
44588;SDS011;30298;52.562;13.414;2022-09-24T12:58:35;6.88;;;5.22;;
44588;SDS011;30298;52.562;13.414;2022-09-24T13:01:05;7.30;;;5.38;;
44588;SDS011;30298;52.562;13.414;2022-09-24T13:05:57;8.23;;;5.60;;
44588;SDS011;30298;52.562;13.414;2022-09-24T13:08:24;8.43;;;5.95;;
44588;SDS011;30298;52.562;13.414;2022-09-24T13:13:28;7.15;;;5.38;;
44588;SDS011;30298;52.562;13.414;2022-09-24T13:18:25;6.90;;;4.70;;
44588;SDS011;30298;52.562;13.414;2022-09-24T13:21:04;6.07;;;4.47;;
44588;SDS011;30298;52.562;13.414;2022-09-24T13:23:31;7.35;;;5.03;;
44588;SDS011;30298;52.562;13.414;2022-09-24T13:26:00;6.60;;;5.55;;
44588;SDS011;30298;52.562;13.414;2022-09-24T13:28:36;7.32;;;5.57;;
44588;SDS011;30298;52.562;13.414;2022-09-24T13:33:43;6.65;;;4.60;;
44588;SDS011;30298;52.562;13.414;2022-09-24T13:36:10;7.40;;;5.22;;
44588;SDS011;30298;52.562;13.414;2022-09-24T13:38:37;5.65;;;4.45;;
44588;SDS011;30298;52.562;13.414;2022-09-24T13:41:52;6.32;;;4.32;;
44588;SDS011;30298;52.562;13.414;2022-09-24T13:43:53;9.60;;;5.10;;
44588;SDS011;30298;52.562;13.414;2022-09-24T13:46:21;8.05;;;4.72;;
44588;SDS011;30298;52.562;13.414;2022-09-24T13:48:51;9.25;;;5.55;;
44588;SDS011;30298;52.562;13.414;2022-09-24T13:51:19;12.00;;;9.48;;
44588;SDS011;30298;52.562;13.414;2022-09-24T13:53:47;6.55;;;5.35;;
44588;SDS011;30298;52.562;13.414;2022-09-24T13:56:14;6.28;;;4.85;;
44588;SDS011;30298;52.562;13.414;2022-09-24T13:58:40;5.70;;;4.47;;
44588;SDS011;30298;52.562;13.414;2022-09-24T14:03:32;6.60;;;5.20;;
44588;SDS011;30298;52.562;13.414;2022-09-24T14:05:59;10.02;;;5.05;;
44588;SDS011;30298;52.562;13.414;2022-09-24T14:08:25;9.38;;;5.95;;
44588;SDS011;30298;52.562;13.414;2022-09-24T14:11:02;9.23;;;5.13;;
44588;SDS011;30298;52.562;13.414;2022-09-24T14:13:27;6.20;;;4.75;;
44588;SDS011;30298;52.562;13.414;2022-09-24T14:15:57;6.15;;;4.72;;
44588;SDS011;30298;52.562;13.414;2022-09-24T14:18:23;5.85;;;4.53;;
44588;SDS011;30298;52.562;13.414;2022-09-24T14:20:57;6.05;;;4.32;;
44588;SDS011;30298;52.562;13.414;2022-09-24T14:23:24;5.88;;;4.68;;
44588;SDS011;30298;52.562;13.414;2022-09-24T14:25:51;8.43;;;7.03;;
44588;SDS011;30298;52.562;13.414;2022-09-24T14:28:17;8.48;;;5.85;;
44588;SDS011;30298;52.562;13.414;2022-09-24T14:30:52;7.88;;;4.85;;
44588;SDS011;30298;52.562;13.414;2022-09-24T14:33:19;6.18;;;4.70;;
44588;SDS011;30298;52.562;13.414;2022-09-24T14:35:47;5.63;;;4.95;;
44588;SDS011;30298;52.562;13.414;2022-09-24T14:40:48;6.85;;;5.05;;
44588;SDS011;30298;52.562;13.414;2022-09-24T14:43:17;7.60;;;5.72;;
44588;SDS011;30298;52.562;13.414;2022-09-24T14:45:43;7.35;;;5.22;;
44588;SDS011;30298;52.562;13.414;2022-09-24T14:48:27;8.77;;;5.10;;
44588;SDS011;30298;52.562;13.414;2022-09-24T14:50:53;7.25;;;5.28;;
44588;SDS011;30298;52.562;13.414;2022-09-24T14:53:20;5.83;;;5.03;;
44588;SDS011;30298;52.562;13.414;2022-09-24T14:55:46;7.15;;;5.78;;
44588;SDS011;30298;52.562;13.414;2022-09-24T15:00:55;9.48;;;5.68;;
44588;SDS011;30298;52.562;13.414;2022-09-24T15:03:42;9.45;;;6.00;;
44588;SDS011;30298;52.562;13.414;2022-09-24T15:06:27;6.65;;;5.40;;
44588;SDS011;30298;52.562;13.414;2022-09-24T15:09:01;7.35;;;5.38;;
44588;SDS011;30298;52.562;13.414;2022-09-24T15:11:27;8.43;;;6.32;;
44588;SDS011;30298;52.562;13.414;2022-09-24T15:13:58;8.85;;;5.82;;
44588;SDS011;30298;52.562;13.414;2022-09-24T15:16:30;10.50;;;5.88;;
44588;SDS011;30298;52.562;13.414;2022-09-24T15:21:30;13.02;;;7.50;;
44588;SDS011;30298;52.562;13.414;2022-09-24T15:23:56;7.00;;;5.63;;
44588;SDS011;30298;52.562;13.414;2022-09-24T15:26:22;8.77;;;6.10;;
44588;SDS011;30298;52.562;13.414;2022-09-24T15:28:48;11.80;;;6.57;;
44588;SDS011;30298;52.562;13.414;2022-09-24T15:31:13;6.77;;;5.70;;
44588;SDS011;30298;52.562;13.414;2022-09-24T15:33:38;9.60;;;6.05;;
44588;SDS011;30298;52.562;13.414;2022-09-24T15:36:03;12.13;;;6.60;;
44588;SDS011;30298;52.562;13.414;2022-09-24T15:38:29;8.95;;;6.75;;
44588;SDS011;30298;52.562;13.414;2022-09-24T15:40:54;7.95;;;7.15;;
44588;SDS011;30298;52.562;13.414;2022-09-24T15:43:23;12.30;;;7.90;;
44588;SDS011;30298;52.562;13.414;2022-09-24T15:45:49;7.28;;;6.53;;
44588;SDS011;30298;52.562;13.414;2022-09-24T15:48:14;9.68;;;7.43;;
44588;SDS011;30298;52.562;13.414;2022-09-24T15:50:39;13.30;;;7.47;;
44588;SDS011;30298;52.562;13.414;2022-09-24T15:53:06;11.13;;;6.90;;
44588;SDS011;30298;52.562;13.414;2022-09-24T15:55:33;12.07;;;9.68;;
44588;SDS011;30298;52.562;13.414;2022-09-24T15:58:00;11.57;;;7.28;;
44588;SDS011;30298;52.562;13.414;2022-09-24T16:00:26;9.73;;;7.20;;
44588;SDS011;30298;52.562;13.414;2022-09-24T16:02:52;18.67;;;7.82;;
44588;SDS011;30298;52.562;13.414;2022-09-24T16:05:19;11.55;;;8.80;;
44588;SDS011;30298;52.562;13.414;2022-09-24T16:07:44;10.82;;;8.52;;
44588;SDS011;30298;52.562;13.414;2022-09-24T16:10:10;11.37;;;8.40;;
44588;SDS011;30298;52.562;13.414;2022-09-24T16:12:35;12.38;;;8.45;;
44588;SDS011;30298;52.562;13.414;2022-09-24T16:15:00;10.10;;;8.40;;
44588;SDS011;30298;52.562;13.414;2022-09-24T16:17:26;11.93;;;8.37;;
44588;SDS011;30298;52.562;13.414;2022-09-24T16:19:51;12.25;;;8.48;;
44588;SDS011;30298;52.562;13.414;2022-09-24T16:22:17;10.48;;;9.38;;
44588;SDS011;30298;52.562;13.414;2022-09-24T16:24:42;18.08;;;10.57;;
44588;SDS011;30298;52.562;13.414;2022-09-24T16:27:07;13.33;;;9.90;;
44588;SDS011;30298;52.562;13.414;2022-09-24T16:29:33;13.53;;;9.77;;
44588;SDS011;30298;52.562;13.414;2022-09-24T16:31:58;17.87;;;11.40;;
44588;SDS011;30298;52.562;13.414;2022-09-24T16:34:26;12.88;;;9.65;;
44588;SDS011;30298;52.562;13.414;2022-09-24T16:36:51;17.37;;;10.63;;
44588;SDS011;30298;52.562;13.414;2022-09-24T16:39:16;14.73;;;9.80;;
44588;SDS011;30298;52.562;13.414;2022-09-24T16:41:41;17.27;;;12.07;;
44588;SDS011;30298;52.562;13.414;2022-09-24T16:44:09;14.88;;;11.02;;